This is the latest recevied weather packets stored in our database for station/object EA3FL-15. If no packets are shown the sender has not sent any weather packets the latest 10 day(s).
| Time | Temp. | Humidity | Pressure | Rain* | Wind** | Luminosity | Snow |
|---|---|---|---|---|---|---|---|
| 1776979187 | 15° C | 100% | 1023.4 hPa | - | - | - | - |
| 1776978288 | 16.11° C | 100% | 1023.4 hPa | - | - | - | - |
| 1776977382 | 16.11° C | 100% | 1023.4 hPa | - | - | - | - |
| 1776976482 | 16.67° C | 100% | 1023.4 hPa | - | - | - | - |
| 1776975582 | 16.67° C | 100% | 1023.4 hPa | - | - | - | - |
| 1776974682 | 16.67° C | 100% | 1023.3 hPa | - | - | - | - |
| 1776973781 | 16.67° C | 100% | 1023.3 hPa | - | - | - | - |
| 1776972881 | 16.67° C | 100% | 1023.1 hPa | - | - | - | - |
| 1776971981 | 17.22° C | 100% | 1023.1 hPa | - | - | - | - |
| 1776971081 | 17.22° C | 100% | 1022.9 hPa | - | - | - | - |
| 1776970181 | 17.78° C | 100% | 1023 hPa | - | - | - | - |
| 1776969281 | 17.78° C | 100% | 1023 hPa | - | - | - | - |
| 1776968381 | 18.33° C | 98% | 1022.8 hPa | - | - | - | - |
| 1776967481 | 18.33° C | 100% | 1022.9 hPa | - | - | - | - |
| 1776966580 | 18.89° C | 94% | 1022.8 hPa | - | - | - | - |
| 1776965680 | 20.56° C | 70% | 1022.9 hPa | - | - | - | - |
| 1776964780 | 20° C | 82% | 1023 hPa | - | - | - | - |
| 1776963880 | 20.56° C | 93% | 1023 hPa | - | - | - | - |
| 1776962980 | 20° C | 100% | 1023 hPa | - | - | - | - |
| 1776962080 | 20° C | 100% | 1023.2 hPa | - | - | - | - |
| 1776961180 | 19.44° C | 100% | 1023.1 hPa | - | - | - | - |
| 1776960279 | 19.44° C | 100% | 1023.1 hPa | - | - | - | - |
| 1776958479 | 18.89° C | 100% | 1023.2 hPa | - | - | - | - |
| 1776957579 | 18.89° C | 100% | 1023.3 hPa | - | - | - | - |
| 1776956679 | 18.89° C | 100% | 1023.2 hPa | - | - | - | - |
* Rain since midnight (hover to see other rain measurements)
** Current wind speed in m/s (hover to see current wind gust speed)